Time;durP1;ratioP1;P1;durP2;ratioP2;P2;SDS_P1;SDS_P2;PMS_P1;PMS_P2;Temp;Humidity;BMP_temperature;BMP_pressure;BME280_temperature;BME280_humidity;BME280_pressure;Samples;Min_cycle;Max_cycle;Signal;HPM_P1;HPM_P2
2022/09/28 00:02:06;;;;;;;3.35;1.90;;;;;;;;;;4980982;28;20045;-59
2022/09/28 00:04:32;;;;;;;5.20;1.80;;;;;;;;;;4983976;28;20452;-61
2022/09/28 00:06:58;;;;;;;6.20;1.77;;;;;;;;;;4978394;28;20050;-58
2022/09/28 00:09:24;;;;;;;2.72;1.60;;;;;;;;;;4980805;28;20401;-59
2022/09/28 00:11:52;;;;;;;2.47;1.45;;;;;;;;;;4977351;28;20042;-58
2022/09/28 00:14:19;;;;;;;3.88;1.70;;;;;;;;;;4983610;28;20089;-57
2022/09/28 00:16:44;;;;;;;4.05;1.50;;;;;;;;;;4978178;28;20066;-59
2022/09/28 00:21:45;;;;;;;5.90;1.27;;;;;;;;;;3122447;22;20057;-71
2022/09/28 00:24:17;;;;;;;3.28;1.50;;;;;;;;;;4996009;28;20041;-71
2022/09/28 00:26:47;;;;;;;3.25;1.40;;;;;;;;;;4996261;28;20064;-71
2022/09/28 00:29:17;;;;;;;3.17;1.20;;;;;;;;;;4999393;28;20030;-70
2022/09/28 00:31:43;;;;;;;1.75;1.05;;;;;;;;;;4996790;28;20046;-70
2022/09/28 00:34:08;;;;;;;2.20;1.13;;;;;;;;;;4993769;28;20104;-72
2022/09/28 00:36:33;;;;;;;4.03;1.30;;;;;;;;;;5008062;28;20497;-72
2022/09/28 00:39:04;;;;;;;3.17;1.48;;;;;;;;;;5002324;28;20501;-69
2022/09/28 00:41:29;;;;;;;2.05;1.20;;;;;;;;;;5001959;28;20029;-70
2022/09/28 00:44:21;;;;;;;1.58;1.00;;;;;;;;;;4997328;28;20030;-72
2022/09/28 00:46:48;;;;;;;2.00;1.27;;;;;;;;;;4989050;28;20049;-72
2022/09/28 00:49:17;;;;;;;3.08;1.15;;;;;;;;;;4991876;28;20564;-71
2022/09/28 00:51:44;;;;;;;3.55;1.30;;;;;;;;;;4997079;28;20125;-71
2022/09/28 00:54:11;;;;;;;4.18;1.42;;;;;;;;;;4997980;28;20057;-71
2022/09/28 00:56:41;;;;;;;3.42;1.00;;;;;;;;;;5000638;28;20496;-70
2022/09/28 00:59:08;;;;;;;2.55;0.98;;;;;;;;;;5002436;28;20093;-72
2022/09/28 01:01:34;;;;;;;1.65;1.30;;;;;;;;;;4999343;28;20053;-73
2022/09/28 01:04:01;;;;;;;3.33;1.42;;;;;;;;;;4999826;28;20045;-70
2022/09/28 01:06:31;;;;;;;4.55;1.38;;;;;;;;;;4995218;28;20041;-69
2022/09/28 01:09:01;;;;;;;3.10;1.40;;;;;;;;;;5011659;28;20049;-69
2022/09/28 01:11:26;;;;;;;2.45;1.20;;;;;;;;;;4997160;28;20030;-70
2022/09/28 01:13:55;;;;;;;3.35;1.20;;;;;;;;;;4995608;28;20025;-67
2022/09/28 01:16:36;;;;;;;1.92;1.17;;;;;;;;;;5001010;28;20045;-67
2022/09/28 01:19:30;;;;;;;3.15;1.20;;;;;;;;;;4996791;28;20038;-68
2022/09/28 01:22:25;;;;;;;2.47;1.00;;;;;;;;;;4983553;28;20046;-69
2022/09/28 01:25:18;;;;;;;3.08;1.20;;;;;;;;;;4994228;28;20046;-67
2022/09/28 01:27:53;;;;;;;3.10;1.00;;;;;;;;;;4982118;28;20054;-66
2022/09/28 01:30:20;;;;;;;2.92;1.20;;;;;;;;;;4980919;28;20061;-69
2022/09/28 01:32:54;;;;;;;3.50;1.33;;;;;;;;;;4978038;28;20118;-69
2022/09/28 01:35:32;;;;;;;3.25;1.50;;;;;;;;;;4981010;28;20113;-68
2022/09/28 01:38:03;;;;;;;2.42;1.20;;;;;;;;;;4980149;28;20060;-69
2022/09/28 01:40:31;;;;;;;1.77;1.30;;;;;;;;;;4981567;28;20137;-69
2022/09/28 01:43:03;;;;;;;2.22;1.27;;;;;;;;;;4978467;28;20066;-69
2022/09/28 01:45:34;;;;;;;1.45;1.25;;;;;;;;;;4983565;28;20042;-68
2022/09/28 01:48:04;;;;;;;2.65;1.40;;;;;;;;;;4980591;28;20486;-68
2022/09/28 01:50:36;;;;;;;4.47;2.25;;;;;;;;;;4983896;28;20030;-68
2022/09/28 01:53:18;;;;;;;1.45;1.20;;;;;;;;;;4984123;28;20476;-67
2022/09/28 01:55:48;;;;;;;2.20;1.30;;;;;;;;;;4980910;28;20489;-68
2022/09/28 01:58:16;;;;;;;3.83;2.35;;;;;;;;;;4975726;28;20490;-69
2022/09/28 02:00:46;;;;;;;6.60;2.20;;;;;;;;;;4982069;28;20045;-69
2022/09/28 02:03:24;;;;;;;4.97;1.88;;;;;;;;;;4974975;28;20408;-68
2022/09/28 02:05:55;;;;;;;3.95;2.05;;;;;;;;;;4986168;28;20042;-69
2022/09/28 02:08:27;;;;;;;3.35;2.20;;;;;;;;;;4978509;28;20521;-69
2022/09/28 02:11:10;;;;;;;4.22;1.83;;;;;;;;;;4988686;28;20062;-68
2022/09/28 02:13:41;;;;;;;3.67;1.70;;;;;;;;;;4985312;28;20050;-68
2022/09/28 02:16:19;;;;;;;2.00;1.00;;;;;;;;;;4985728;28;20046;-70
2022/09/28 02:18:45;;;;;;;1.98;1.08;;;;;;;;;;4988177;28;20523;-70
2022/09/28 02:21:30;;;;;;;2.35;1.23;;;;;;;;;;4989318;28;20081;-70
2022/09/28 02:24:05;;;;;;;1.38;0.98;;;;;;;;;;4988856;28;20130;-69
2022/09/28 02:26:35;;;;;;;2.20;1.10;;;;;;;;;;4990082;28;20096;-70
2022/09/28 02:29:00;;;;;;;1.20;0.75;;;;;;;;;;4990430;28;20485;-69
2022/09/28 02:31:26;;;;;;;0.95;0.70;;;;;;;;;;4988417;28;20049;-69
2022/09/28 02:33:55;;;;;;;0.75;0.63;;;;;;;;;;4988469;28;20705;-69
2022/09/28 02:36:20;;;;;;;3.95;0.70;;;;;;;;;;4987939;28;20132;-68
2022/09/28 02:38:46;;;;;;;0.60;0.50;;;;;;;;;;4989814;28;20121;-68
2022/09/28 02:41:23;;;;;;;1.30;0.75;;;;;;;;;;4990799;28;20031;-70
2022/09/28 02:43:58;;;;;;;3.60;0.73;;;;;;;;;;4988194;28;20051;-69
2022/09/28 02:46:28;;;;;;;2.65;0.60;;;;;;;;;;4990246;28;20049;-68
2022/09/28 02:48:56;;;;;;;1.55;0.70;;;;;;;;;;4992915;28;20042;-69
2022/09/28 02:51:44;;;;;;;3.28;0.70;;;;;;;;;;4991000;28;20069;-70
2022/09/28 02:54:35;;;;;;;1.75;0.70;;;;;;;;;;4990234;28;20050;-70
2022/09/28 02:57:03;;;;;;;2.30;0.57;;;;;;;;;;4989710;28;20045;-70
2022/09/28 02:59:32;;;;;;;0.50;0.50;;;;;;;;;;4991313;28;20026;-70
2022/09/28 03:02:00;;;;;;;0.40;0.40;;;;;;;;;;4987102;28;20469;-70
2022/09/28 03:04:34;;;;;;;2.13;0.50;;;;;;;;;;4991558;28;20045;-69
2022/09/28 03:07:17;;;;;;;0.93;0.60;;;;;;;;;;4990123;28;20038;-70
2022/09/28 03:09:55;;;;;;;0.75;0.60;;;;;;;;;;4989298;28;20030;-70
2022/09/28 03:12:23;;;;;;;1.17;0.82;;;;;;;;;;4989475;28;20042;-69
2022/09/28 03:15:08;;;;;;;1.95;0.50;;;;;;;;;;4986172;28;20536;-68
2022/09/28 03:17:33;;;;;;;1.80;0.70;;;;;;;;;;4984501;28;20038;-68
2022/09/28 03:19:59;;;;;;;1.30;0.70;;;;;;;;;;4986446;28;20541;-70
2022/09/28 03:22:24;;;;;;;1.85;0.93;;;;;;;;;;4986626;28;20047;-70
2022/09/28 03:24:50;;;;;;;3.15;0.57;;;;;;;;;;4987741;28;20402;-70
2022/09/28 03:27:15;;;;;;;1.52;0.68;;;;;;;;;;4982022;28;20038;-70
2022/09/28 03:29:40;;;;;;;2.60;1.00;;;;;;;;;;4980901;28;20520;-68
2022/09/28 03:32:06;;;;;;;2.85;0.60;;;;;;;;;;4986101;28;20094;-71
2022/09/28 03:34:31;;;;;;;2.75;0.70;;;;;;;;;;4985735;28;20065;-70
2022/09/28 03:36:56;;;;;;;0.88;0.60;;;;;;;;;;4986801;28;20062;-70
2022/09/28 03:39:22;;;;;;;1.20;0.68;;;;;;;;;;4987187;28;20498;-70
2022/09/28 03:41:47;;;;;;;0.80;0.70;;;;;;;;;;4983493;28;20057;-69
2022/09/28 03:44:13;;;;;;;1.95;0.80;;;;;;;;;;4987934;28;20719;-70
2022/09/28 03:46:38;;;;;;;6.25;1.05;;;;;;;;;;4987278;28;20038;-70
2022/09/28 03:49:04;;;;;;;1.80;0.90;;;;;;;;;;4986445;28;20456;-69
2022/09/28 03:51:29;;;;;;;1.50;0.82;;;;;;;;;;4985411;28;20049;-69
2022/09/28 03:53:54;;;;;;;2.22;0.98;;;;;;;;;;4982417;28;20038;-71
2022/09/28 03:56:20;;;;;;;1.48;0.90;;;;;;;;;;4989017;28;20050;-71
2022/09/28 03:58:45;;;;;;;2.20;1.05;;;;;;;;;;4979970;28;20035;-70
2022/09/28 04:01:14;;;;;;;2.00;1.25;;;;;;;;;;4985320;28;20035;-70
2022/09/28 04:03:40;;;;;;;2.85;1.27;;;;;;;;;;4981621;28;20042;-70
2022/09/28 04:06:05;;;;;;;1.67;1.42;;;;;;;;;;4987348;28;20037;-69
2022/09/28 04:08:31;;;;;;;1.30;1.13;;;;;;;;;;4983930;28;20033;-69
2022/09/28 04:10:57;;;;;;;4.43;1.10;;;;;;;;;;4984526;28;20031;-70
2022/09/28 04:13:23;;;;;;;1.88;1.20;;;;;;;;;;4986819;28;20042;-69
2022/09/28 04:15:57;;;;;;;2.92;1.23;;;;;;;;;;4982606;28;20042;-68
2022/09/28 04:18:23;;;;;;;1.65;1.23;;;;;;;;;;4982140;28;20045;-68
2022/09/28 04:21:05;;;;;;;1.58;1.30;;;;;;;;;;4984072;28;20051;-69
2022/09/28 04:23:31;;;;;;;2.08;1.25;;;;;;;;;;4983596;28;20038;-70
2022/09/28 04:25:57;;;;;;;2.95;1.10;;;;;;;;;;4983439;28;20034;-70
2022/09/28 04:31:19;;;;;;;3.05;1.23;;;;;;;;;;4986497;28;20045;-70
2022/09/28 04:33:44;;;;;;;2.22;1.20;;;;;;;;;;4984244;28;20480;-69
2022/09/28 04:36:10;;;;;;;1.48;1.10;;;;;;;;;;4982485;28;20050;-70
2022/09/28 04:38:39;;;;;;;2.08;1.30;;;;;;;;;;4981202;28;20096;-69
2022/09/28 04:41:05;;;;;;;2.28;1.42;;;;;;;;;;4988044;28;20050;-69
2022/09/28 04:43:31;;;;;;;2.55;1.40;;;;;;;;;;4985845;28;20043;-70
2022/09/28 04:46:01;;;;;;;1.20;1.02;;;;;;;;;;4986235;28;20054;-70
2022/09/28 04:48:27;;;;;;;1.40;1.23;;;;;;;;;;4982777;28;20450;-69
2022/09/28 04:50:57;;;;;;;1.63;1.13;;;;;;;;;;4985710;28;20046;-69
2022/09/28 04:53:23;;;;;;;4.13;1.90;;;;;;;;;;4981974;28;20088;-69
2022/09/28 04:56:15;;;;;;;1.58;0.60;;;;;;;;;;4982676;28;20031;-70
2022/09/28 04:58:41;;;;;;;2.67;1.00;;;;;;;;;;4980956;28;20045;-71
2022/09/28 05:01:12;;;;;;;0.70;0.70;;;;;;;;;;4984976;28;20046;-70
2022/09/28 05:03:38;;;;;;;1.23;0.90;;;;;;;;;;4986135;28;20034;-69
2022/09/28 05:06:05;;;;;;;1.58;0.82;;;;;;;;;;4983946;28;20776;-69
2022/09/28 05:08:31;;;;;;;1.50;1.10;;;;;;;;;;4982906;28;20795;-69
2022/09/28 05:10:59;;;;;;;2.85;1.27;;;;;;;;;;4979737;28;20038;-69
2022/09/28 05:13:26;;;;;;;1.02;0.80;;;;;;;;;;4981065;28;20069;-70
2022/09/28 05:15:53;;;;;;;2.17;1.08;;;;;;;;;;4979573;28;20096;-71
2022/09/28 05:18:19;;;;;;;2.10;1.15;;;;;;;;;;4981469;28;20442;-70
2022/09/28 05:20:44;;;;;;;1.80;0.88;;;;;;;;;;4984705;28;20047;-69
2022/09/28 05:23:11;;;;;;;1.38;0.90;;;;;;;;;;4983077;28;20041;-69
2022/09/28 05:25:37;;;;;;;1.55;1.00;;;;;;;;;;4984944;28;20450;-70
2022/09/28 05:28:03;;;;;;;1.48;0.98;;;;;;;;;;4993078;28;20065;-69
2022/09/28 05:30:29;;;;;;;2.13;1.42;;;;;;;;;;4981876;28;20217;-69
2022/09/28 05:32:54;;;;;;;3.38;2.05;;;;;;;;;;4980590;28;20517;-69
2022/09/28 05:35:19;;;;;;;8.63;1.95;;;;;;;;;;4983100;28;20465;-69
2022/09/28 05:37:45;;;;;;;1.48;1.30;;;;;;;;;;4984600;28;20034;-70
2022/09/28 05:40:11;;;;;;;3.38;1.50;;;;;;;;;;4982892;28;20189;-69
2022/09/28 05:42:36;;;;;;;2.95;1.48;;;;;;;;;;4983697;28;20092;-70
2022/09/28 05:45:02;;;;;;;4.18;1.70;;;;;;;;;;4979879;28;20573;-72
2022/09/28 05:47:28;;;;;;;1.88;1.40;;;;;;;;;;4979785;28;20023;-69
2022/09/28 05:49:54;;;;;;;10.23;1.63;;;;;;;;;;4983528;28;20030;-70
2022/09/28 05:52:20;;;;;;;7.63;1.48;;;;;;;;;;4981644;28;20133;-69
2022/09/28 05:54:45;;;;;;;2.97;1.25;;;;;;;;;;4985913;28;20494;-70
2022/09/28 05:57:11;;;;;;;4.03;1.40;;;;;;;;;;4995348;28;20042;-69
2022/09/28 05:59:37;;;;;;;2.50;1.40;;;;;;;;;;4982360;28;20066;-71
2022/09/28 06:02:03;;;;;;;1.98;1.38;;;;;;;;;;4980862;28;20037;-71
2022/09/28 06:04:29;;;;;;;3.40;1.13;;;;;;;;;;4979869;28;20046;-70
2022/09/28 06:06:54;;;;;;;1.30;1.20;;;;;;;;;;4980552;28;20038;-70
2022/09/28 06:09:22;;;;;;;2.47;1.40;;;;;;;;;;4977897;28;20136;-69
2022/09/28 06:11:48;;;;;;;2.85;1.00;;;;;;;;;;4977584;28;20569;-68
2022/09/28 06:14:13;;;;;;;3.55;1.60;;;;;;;;;;4981855;28;20102;-70
2022/09/28 06:16:39;;;;;;;6.20;1.55;;;;;;;;;;4980925;28;20041;-69
2022/09/28 06:19:05;;;;;;;4.60;2.75;;;;;;;;;;4979074;28;20191;-70
2022/09/28 06:21:30;;;;;;;4.30;2.22;;;;;;;;;;4983938;28;20686;-70
2022/09/28 06:23:56;;;;;;;2.28;0.85;;;;;;;;;;4970767;28;20035;-70
2022/09/28 06:26:21;;;;;;;1.13;1.00;;;;;;;;;;4960192;28;20035;-70
2022/09/28 06:28:46;;;;;;;1.10;0.85;;;;;;;;;;4979591;28;20118;-73
2022/09/28 06:31:12;;;;;;;1.10;1.00;;;;;;;;;;4975831;28;20035;-69
2022/09/28 06:33:37;;;;;;;1.85;0.93;;;;;;;;;;4974905;28;20030;-70
2022/09/28 06:36:03;;;;;;;3.90;1.98;;;;;;;;;;4979944;28;20046;-70
2022/09/28 06:38:29;;;;;;;9.05;4.10;;;;;;;;;;4981736;28;20856;-69
2022/09/28 06:40:56;;;;;;;1.58;1.20;;;;;;;;;;4978421;28;20113;-69
2022/09/28 06:43:22;;;;;;;2.13;1.17;;;;;;;;;;4991396;28;20520;-68
2022/09/28 06:45:53;;;;;;;3.08;1.10;;;;;;;;;;4975094;28;20034;-68
2022/09/28 06:48:19;;;;;;;1.77;1.20;;;;;;;;;;4956223;28;20058;-68
2022/09/28 06:50:45;;;;;;;1.52;0.98;;;;;;;;;;4957394;28;20034;-68
2022/09/28 06:53:12;;;;;;;1.80;1.20;;;;;;;;;;4984849;28;20045;-68
2022/09/28 06:55:44;;;;;;;1.73;1.25;;;;;;;;;;4988102;28;20091;-70
2022/09/28 06:58:12;;;;;;;4.53;1.70;;;;;;;;;;4986288;28;20483;-68
2022/09/28 07:00:39;;;;;;;4.88;2.47;;;;;;;;;;4981961;28;20494;-69
2022/09/28 07:03:11;;;;;;;3.53;1.00;;;;;;;;;;4980633;28;20035;-68
2022/09/28 07:05:43;;;;;;;0.90;0.90;;;;;;;;;;4979970;28;20026;-69
2022/09/28 07:08:09;;;;;;;2.03;1.20;;;;;;;;;;4979056;28;20046;-69
2022/09/28 07:10:39;;;;;;;5.97;1.30;;;;;;;;;;4982381;28;20789;-68
2022/09/28 07:13:04;;;;;;;4.57;1.38;;;;;;;;;;4977406;28;20034;-68
2022/09/28 07:15:30;;;;;;;3.42;0.98;;;;;;;;;;4980631;28;20094;-67
2022/09/28 07:17:57;;;;;;;1.27;0.90;;;;;;;;;;4995078;28;20125;-67
2022/09/28 07:22:59;;;;;;;3.03;1.42;;;;;;;;;;5002363;22;20053;-59
2022/09/28 07:25:25;;;;;;;1.77;1.30;;;;;;;;;;4982034;28;20069;-60
2022/09/28 07:27:56;;;;;;;1.23;0.90;;;;;;;;;;4972326;28;20050;-56
2022/09/28 07:30:22;;;;;;;3.08;1.33;;;;;;;;;;4970079;28;20050;-56
2022/09/28 07:32:47;;;;;;;1.65;0.80;;;;;;;;;;4966332;28;20039;-52
2022/09/28 07:35:13;;;;;;;3.67;2.50;;;;;;;;;;4946581;28;20136;-57
2022/09/28 07:37:38;;;;;;;0.90;0.77;;;;;;;;;;4963656;28;20105;-65
2022/09/28 07:42:49;;;;;;;3.45;1.00;;;;;;;;;;4968269;28;20165;-66
2022/09/28 07:45:15;;;;;;;2.72;1.40;;;;;;;;;;4970355;28;20133;-67
2022/09/28 07:47:41;;;;;;;1.73;0.80;;;;;;;;;;4950055;28;20390;-56
2022/09/28 07:50:07;;;;;;;2.10;0.90;;;;;;;;;;4972042;28;20031;-55
2022/09/28 07:52:34;;;;;;;2.50;0.68;;;;;;;;;;4970781;28;20406;-58
2022/09/28 07:55:00;;;;;;;0.98;0.50;;;;;;;;;;4971835;28;20049;-58
2022/09/28 07:57:27;;;;;;;1.67;0.63;;;;;;;;;;4969767;28;20133;-67
2022/09/28 07:59:53;;;;;;;1.35;0.70;;;;;;;;;;4964610;28;20058;-66
2022/09/28 08:02:21;;;;;;;3.20;1.10;;;;;;;;;;4974350;28;20042;-58
2022/09/28 08:04:47;;;;;;;3.85;0.77;;;;;;;;;;4968514;28;20063;-59
2022/09/28 08:07:24;;;;;;;1.27;0.50;;;;;;;;;;4966157;28;20370;-59
2022/09/28 08:09:50;;;;;;;1.25;0.55;;;;;;;;;;4968932;28;20066;-66
2022/09/28 08:12:18;;;;;;;1.33;0.50;;;;;;;;;;4968417;28;20516;-65
2022/09/28 08:14:44;;;;;;;2.65;0.98;;;;;;;;;;4973800;28;20074;-66
2022/09/28 08:17:10;;;;;;;2.60;0.57;;;;;;;;;;4986462;28;20532;-65
2022/09/28 08:22:19;;;;;;;0.65;0.50;;;;;;;;;;4977782;28;20616;-57
2022/09/28 08:24:46;;;;;;;1.67;0.70;;;;;;;;;;4982122;28;20034;-54
2022/09/28 08:27:13;;;;;;;2.88;0.80;;;;;;;;;;4979318;28;20046;-56
2022/09/28 08:29:38;;;;;;;0.80;0.63;;;;;;;;;;4982663;28;20053;-58
2022/09/28 08:32:07;;;;;;;3.30;1.08;;;;;;;;;;4979404;28;20163;-58
2022/09/28 08:34:42;;;;;;;2.15;0.70;;;;;;;;;;4981922;28;20058;-56
2022/09/28 08:37:08;;;;;;;1.67;0.55;;;;;;;;;;4965317;28;20500;-57
2022/09/28 08:39:34;;;;;;;2.25;0.70;;;;;;;;;;4981842;28;20069;-53
2022/09/28 08:42:24;;;;;;;2.17;0.40;;;;;;;;;;4981362;28;20397;-58
2022/09/28 08:44:56;;;;;;;0.50;0.40;;;;;;;;;;4985478;28;20560;-71
2022/09/28 08:50:46;;;;;;;1.13;0.50;;;;;;;;;;4983612;28;20458;-65
2022/09/28 08:53:31;;;;;;;1.38;0.40;;;;;;;;;;4982277;28;20633;-65
2022/09/28 08:56:02;;;;;;;0.82;0.47;;;;;;;;;;4987054;28;20496;-65
2022/09/28 08:58:36;;;;;;;1.30;0.52;;;;;;;;;;4975312;28;20046;-58
2022/09/28 09:01:06;;;;;;;0.80;0.43;;;;;;;;;;4982931;28;20424;-59
2022/09/28 09:03:34;;;;;;;2.90;0.50;;;;;;;;;;4965068;28;20137;-53
2022/09/28 09:06:22;;;;;;;1.50;0.47;;;;;;;;;;4982825;28;20051;-56
2022/09/28 09:09:13;;;;;;;1.05;0.40;;;;;;;;;;4988938;28;20042;-65
2022/09/28 09:12:02;;;;;;;1.20;0.50;;;;;;;;;;4981155;28;20046;-65
2022/09/28 09:14:33;;;;;;;1.20;0.68;;;;;;;;;;4979402;28;20031;-64
2022/09/28 09:17:21;;;;;;;1.40;0.52;;;;;;;;;;4980297;28;20443;-64
2022/09/28 09:20:00;;;;;;;2.55;0.50;;;;;;;;;;4983429;28;20053;-57
2022/09/28 09:22:39;;;;;;;1.58;0.32;;;;;;;;;;4972595;28;20054;-63
2022/09/28 09:25:39;;;;;;;1.90;0.40;;;;;;;;;;4981040;28;20045;-63
2022/09/28 09:28:13;;;;;;;2.13;0.43;;;;;;;;;;4979664;28;20042;-63
2022/09/28 09:31:01;;;;;;;1.50;0.50;;;;;;;;;;4981559;28;20122;-63
2022/09/28 09:33:32;;;;;;;2.83;0.50;;;;;;;;;;4914172;29;20074;-59
2022/09/28 09:36:30;;;;;;;2.25;0.57;;;;;;;;;;4971772;28;20049;-60
2022/09/28 09:39:05;;;;;;;4.55;2.00;;;;;;;;;;4979950;28;20050;-58
2022/09/28 09:41:57;;;;;;;2.10;0.50;;;;;;;;;;4982977;28;20610;-57
2022/09/28 09:44:45;;;;;;;2.97;0.60;;;;;;;;;;4980549;28;20467;-54
2022/09/28 09:47:16;;;;;;;1.35;0.50;;;;;;;;;;4978250;28;20034;-55
2022/09/28 09:49:56;;;;;;;0.98;0.20;;;;;;;;;;4981684;28;20034;-52
2022/09/28 09:52:34;;;;;;;0.75;0.45;;;;;;;;;;4984158;28;20493;-64
2022/09/28 09:55:24;;;;;;;1.00;0.28;;;;;;;;;;4985338;28;20054;-65
2022/09/28 09:58:13;;;;;;;0.60;0.30;;;;;;;;;;4978663;28;20054;-59
2022/09/28 10:00:46;;;;;;;1.38;0.30;;;;;;;;;;4980567;28;20153;-59
2022/09/28 10:03:25;;;;;;;0.95;0.60;;;;;;;;;;4980290;28;20409;-60
2022/09/28 10:06:02;;;;;;;2.35;0.60;;;;;;;;;;4979830;28;20728;-55
2022/09/28 10:08:44;;;;;;;0.73;0.32;;;;;;;;;;4980253;28;20042;-52
2022/09/28 10:11:15;;;;;;;2.40;0.35;;;;;;;;;;4980222;28;20139;-56
2022/09/28 10:13:43;;;;;;;2.10;0.43;;;;;;;;;;4984362;28;20395;-56
2022/09/28 10:16:09;;;;;;;0.93;0.38;;;;;;;;;;4982326;28;20137;-55
2022/09/28 10:18:35;;;;;;;1.70;0.40;;;;;;;;;;4984298;28;20177;-59
2022/09/28 10:21:01;;;;;;;1.42;0.50;;;;;;;;;;4979802;28;20940;-59
2022/09/28 10:23:29;;;;;;;0.73;0.30;;;;;;;;;;4984668;28;20042;-64
2022/09/28 10:26:03;;;;;;;0.82;0.20;;;;;;;;;;4983904;28;21457;-63
2022/09/28 10:28:38;;;;;;;0.63;0.30;;;;;;;;;;4987294;28;20041;-59
2022/09/28 10:31:33;;;;;;;1.23;0.40;;;;;;;;;;4981353;28;20109;-59
2022/09/28 10:33:58;;;;;;;2.17;0.50;;;;;;;;;;4984424;28;20108;-64
2022/09/28 10:36:25;;;;;;;1.75;0.30;;;;;;;;;;4984762;28;20050;-63
2022/09/28 10:38:52;;;;;;;1.27;0.57;;;;;;;;;;4980797;28;20057;-64
2022/09/28 10:41:18;;;;;;;0.32;0.30;;;;;;;;;;4982972;28;20097;-64
2022/09/28 10:44:04;;;;;;;1.15;0.30;;;;;;;;;;4981213;28;20145;-58
2022/09/28 10:46:32;;;;;;;0.63;0.40;;;;;;;;;;4994132;28;20047;-56
2022/09/28 10:49:01;;;;;;;1.35;0.52;;;;;;;;;;4971206;28;20516;-59
2022/09/28 10:51:52;;;;;;;2.50;1.45;;;;;;;;;;4988407;28;20074;-57
2022/09/28 10:54:26;;;;;;;0.98;0.32;;;;;;;;;;4984145;28;20371;-66
2022/09/28 10:56:54;;;;;;;1.70;0.43;;;;;;;;;;4984521;28;20046;-66
2022/09/28 10:59:28;;;;;;;2.75;0.57;;;;;;;;;;4987783;28;20093;-56
2022/09/28 11:02:17;;;;;;;0.82;0.40;;;;;;;;;;4984031;28;20052;-58
2022/09/28 11:04:58;;;;;;;2.72;0.60;;;;;;;;;;4986505;28;20049;-66
2022/09/28 11:07:32;;;;;;;0.65;0.50;;;;;;;;;;4982969;28;20043;-65
2022/09/28 11:09:59;;;;;;;1.13;0.30;;;;;;;;;;4991452;28;20054;-63
2022/09/28 11:12:30;;;;;;;3.13;0.40;;;;;;;;;;4984268;28;20050;-57
2022/09/28 11:15:03;;;;;;;0.93;0.38;;;;;;;;;;4994409;28;20049;-56
2022/09/28 11:17:39;;;;;;;3.00;0.63;;;;;;;;;;4983402;28;20108;-57
2022/09/28 11:20:23;;;;;;;3.60;0.40;;;;;;;;;;4966501;28;20396;-58
2022/09/28 11:22:50;;;;;;;1.25;0.43;;;;;;;;;;4990987;28;20049;-58
2022/09/28 11:25:15;;;;;;;0.85;0.40;;;;;;;;;;4991088;28;20039;-58
2022/09/28 11:28:03;;;;;;;0.93;0.22;;;;;;;;;;4980655;28;20490;-57
2022/09/28 11:30:32;;;;;;;1.90;0.70;;;;;;;;;;4988158;28;20088;-57
2022/09/28 11:33:17;;;;;;;0.55;0.30;;;;;;;;;;4980571;28;20104;-65
2022/09/28 11:36:12;;;;;;;2.28;0.40;;;;;;;;;;4984728;28;20061;-64
2022/09/28 11:38:52;;;;;;;2.15;0.35;;;;;;;;;;4990678;28;20038;-58
2022/09/28 11:41:42;;;;;;;2.53;1.05;;;;;;;;;;4990356;28;20042;-58
2022/09/28 11:44:51;;;;;;;1.35;0.65;;;;;;;;;;4984834;28;20073;-57
2022/09/28 11:47:40;;;;;;;3.25;0.70;;;;;;;;;;4883951;29;20060;-64
2022/09/28 11:50:29;;;;;;;0.40;0.40;;;;;;;;;;4986472;28;20404;-64
2022/09/28 11:53:32;;;;;;;3.30;0.40;;;;;;;;;;4986257;28;20094;-63
2022/09/28 11:56:03;;;;;;;4.87;0.60;;;;;;;;;;4987510;28;20418;-64
2022/09/28 11:58:36;;;;;;;1.02;0.35;;;;;;;;;;4984261;28;20452;-64
2022/09/28 12:01:04;;;;;;;0.73;0.40;;;;;;;;;;4981887;28;20070;-64
2022/09/28 12:03:39;;;;;;;2.50;0.50;;;;;;;;;;4984023;28;20144;-64
2022/09/28 12:06:10;;;;;;;2.42;0.50;;;;;;;;;;4984446;28;20069;-64
2022/09/28 12:08:40;;;;;;;1.63;0.60;;;;;;;;;;4984844;28;20039;-64
2022/09/28 12:11:14;;;;;;;3.90;0.60;;;;;;;;;;4983447;28;20255;-64
2022/09/28 12:13:44;;;;;;;0.73;0.50;;;;;;;;;;4984659;28;20054;-63
2022/09/28 12:16:22;;;;;;;0.55;0.50;;;;;;;;;;4982408;28;20598;-63
2022/09/28 12:18:56;;;;;;;0.98;0.43;;;;;;;;;;4986435;28;20054;-64
2022/09/28 12:21:41;;;;;;;1.35;0.40;;;;;;;;;;4984462;28;20483;-64
2022/09/28 12:24:25;;;;;;;1.05;0.55;;;;;;;;;;4980989;28;20050;-63
2022/09/28 12:26:59;;;;;;;2.03;0.30;;;;;;;;;;4972135;28;20245;-64
2022/09/28 12:29:47;;;;;;;1.33;0.50;;;;;;;;;;4986102;28;20038;-58
2022/09/28 12:32:24;;;;;;;3.55;0.40;;;;;;;;;;4983672;28;20085;-57
2022/09/28 12:34:49;;;;;;;1.27;0.57;;;;;;;;;;4982363;28;20046;-57
2022/09/28 12:37:34;;;;;;;0.25;0.20;;;;;;;;;;4983615;28;20054;-57
2022/09/28 12:40:17;;;;;;;1.20;0.50;;;;;;;;;;4978698;28;20440;-60
2022/09/28 12:42:55;;;;;;;;;;;;;;;;;;4982687;28;20081;-63
2022/09/28 12:45:58;;;;;;;1.55;0.20;;;;;;;;;;4979516;28;20381;-64
2022/09/28 12:48:42;;;;;;;0.40;0.30;;;;;;;;;;4980768;28;20057;-56
2022/09/28 12:51:10;;;;;;;2.38;0.40;;;;;;;;;;4980206;28;20074;-57
2022/09/28 12:54:33;;;;;;;0.30;0.30;;;;;;;;;;4982324;28;20088;-59
2022/09/28 12:57:14;;;;;;;1.05;0.30;;;;;;;;;;4948321;28;20103;-57
2022/09/28 13:00:03;;;;;;;0.82;0.50;;;;;;;;;;4985574;28;20590;-56
2022/09/28 13:02:59;;;;;;;0.88;0.45;;;;;;;;;;4978081;28;20358;-62
2022/09/28 13:05:55;;;;;;;1.38;0.50;;;;;;;;;;4974332;28;20038;-62
2022/09/28 13:08:52;;;;;;;0.60;0.38;;;;;;;;;;4976073;28;20053;-58
2022/09/28 13:11:24;;;;;;;0.68;0.40;;;;;;;;;;4977606;28;20051;-57
2022/09/28 13:14:15;;;;;;;2.08;0.40;;;;;;;;;;4963158;28;20034;-63
2022/09/28 13:17:01;;;;;;;1.65;0.40;;;;;;;;;;4955432;28;20055;-63
2022/09/28 13:19:58;;;;;;;1.48;0.38;;;;;;;;;;4979701;28;20085;-65
2022/09/28 13:22:45;;;;;;;0.95;0.43;;;;;;;;;;4977401;28;20133;-66
2022/09/28 13:25:16;;;;;;;0.70;0.40;;;;;;;;;;4958393;28;20082;-65
2022/09/28 13:27:54;;;;;;;1.48;0.40;;;;;;;;;;4978618;28;20046;-57
2022/09/28 13:30:20;;;;;;;0.43;0.30;;;;;;;;;;4981826;28;20459;-57
2022/09/28 13:32:47;;;;;;;2.25;0.45;;;;;;;;;;4980199;28;20046;-60
2022/09/28 13:35:20;;;;;;;3.50;0.50;;;;;;;;;;4978549;28;20113;-58
2022/09/28 13:37:46;;;;;;;3.53;0.63;;;;;;;;;;4978567;28;20396;-64
2022/09/28 13:40:58;;;;;;;0.40;0.40;;;;;;;;;;4980422;28;20042;-65
2022/09/28 13:43:48;;;;;;;2.17;0.70;;;;;;;;;;4980247;28;20141;-63
2022/09/28 13:46:41;;;;;;;2.05;0.50;;;;;;;;;;4977257;28;20058;-63
2022/09/28 13:49:25;;;;;;;1.98;0.73;;;;;;;;;;4973922;28;20046;-63
2022/09/28 13:52:25;;;;;;;0.50;0.40;;;;;;;;;;4976557;28;20053;-64
2022/09/28 13:54:59;;;;;;;0.47;0.30;;;;;;;;;;4981898;28;20062;-65
2022/09/28 13:57:28;;;;;;;1.58;0.35;;;;;;;;;;4978035;28;20485;-57
2022/09/28 14:00:09;;;;;;;0.88;0.30;;;;;;;;;;4976695;28;20408;-57
2022/09/28 14:03:02;;;;;;;0.47;0.32;;;;;;;;;;4978834;28;20049;-58
2022/09/28 14:06:03;;;;;;;1.35;0.20;;;;;;;;;;4982276;28;20042;-57
2022/09/28 14:08:49;;;;;;;0.93;0.40;;;;;;;;;;4979013;28;20042;-63
2022/09/28 14:11:26;;;;;;;1.08;0.40;;;;;;;;;;4939347;28;20057;-64
2022/09/28 14:14:10;;;;;;;1.20;0.30;;;;;;;;;;4980164;28;20124;-60
2022/09/28 14:16:37;;;;;;;0.95;0.30;;;;;;;;;;4979781;28;20046;-59
2022/09/28 14:19:25;;;;;;;1.20;0.50;;;;;;;;;;4980970;28;20060;-58
2022/09/28 14:21:59;;;;;;;0.60;0.40;;;;;;;;;;4974354;28;20501;-59
2022/09/28 14:24:38;;;;;;;0.43;0.28;;;;;;;;;;4977152;28;20681;-63
2022/09/28 14:27:20;;;;;;;0.75;0.30;;;;;;;;;;4977318;28;20054;-63
2022/09/28 14:29:52;;;;;;;1.55;0.30;;;;;;;;;;4984526;28;20035;-63
2022/09/28 14:32:35;;;;;;;1.23;0.40;;;;;;;;;;4975996;28;20038;-62
2022/09/28 14:35:16;;;;;;;0.90;0.30;;;;;;;;;;4972140;28;20046;-63
2022/09/28 14:43:32;;;;;;;0.40;0.32;;;;;;;;;;4974192;28;20135;-62
2022/09/28 14:46:09;;;;;;;0.40;0.30;;;;;;;;;;4979275;28;20057;-62
2022/09/28 14:48:46;;;;;;;1.27;0.20;;;;;;;;;;4980272;28;20066;-59
2022/09/28 14:51:41;;;;;;;3.38;0.80;;;;;;;;;;4975459;28;20117;-59
2022/09/28 14:54:06;;;;;;;1.02;0.40;;;;;;;;;;4950872;28;20051;-56
2022/09/28 14:56:39;;;;;;;1.55;0.55;;;;;;;;;;4975840;28;20038;-56
2022/09/28 14:59:08;;;;;;;0.35;0.35;;;;;;;;;;4973160;28;22131;-57
2022/09/28 15:01:34;;;;;;;0.95;0.43;;;;;;;;;;4972650;28;20058;-59
2022/09/28 15:04:07;;;;;;;1.30;0.35;;;;;;;;;;4983060;28;20061;-63
2022/09/28 15:06:45;;;;;;;;;;;;;;;;;;4981313;28;20045;-64
2022/09/28 15:09:43;;;;;;;0.20;0.20;;;;;;;;;;4976424;28;19925;-57
2022/09/28 15:12:21;;;;;;;1.88;0.50;;;;;;;;;;4916885;28;20464;-58
2022/09/28 15:14:53;;;;;;;3.75;0.63;;;;;;;;;;4980855;28;20444;-58
2022/09/28 15:17:22;;;;;;;1.80;0.32;;;;;;;;;;4984784;28;20037;-59
2022/09/28 15:20:16;;;;;;;0.82;0.30;;;;;;;;;;4987802;28;20099;-59
2022/09/28 15:22:50;;;;;;;1.52;0.90;;;;;;;;;;4982363;28;20062;-60
2022/09/28 15:25:20;;;;;;;0.35;0.35;;;;;;;;;;4981738;28;20042;-61
2022/09/28 15:28:15;;;;;;;0.80;0.20;;;;;;;;;;4975577;28;20117;-60
2022/09/28 15:30:40;;;;;;;1.17;0.38;;;;;;;;;;4978157;28;20081;-61
2022/09/28 15:36:32;;;;;;;3.28;0.55;;;;;;;;;;4983190;28;20045;-64
2022/09/28 15:39:01;;;;;;;1.25;0.40;;;;;;;;;;4975541;28;20046;-58
2022/09/28 15:41:27;;;;;;;0.82;0.40;;;;;;;;;;4979888;28;20046;-59
2022/09/28 15:44:11;;;;;;;2.75;0.50;;;;;;;;;;4984103;28;20053;-58
2022/09/28 15:46:39;;;;;;;0.93;0.60;;;;;;;;;;4980722;28;20058;-60